sensor_id;sensor_type;location;lat;lon;timestamp;pressure;altitude;pressure_sealevel;temperature;humidity
59435;BME280;45241;49.768;8.636;2023-02-10T00:00:28;102115.94;;;0.99;69.55
59435;BME280;45241;49.768;8.636;2023-02-10T00:02:53;102119.25;;;0.87;70.08
59435;BME280;45241;49.768;8.636;2023-02-10T00:05:18;102116.69;;;0.86;70.62
59435;BME280;45241;49.768;8.636;2023-02-10T00:07:44;102113.97;;;0.54;71.06
59435;BME280;45241;49.768;8.636;2023-02-10T00:10:09;102124.41;;;0.73;70.96
59435;BME280;45241;49.768;8.636;2023-02-10T00:12:37;102129.44;;;0.77;70.33
59435;BME280;45241;49.768;8.636;2023-02-10T00:15:04;102127.97;;;0.39;70.88
59435;BME280;45241;49.768;8.636;2023-02-10T00:17:29;102135.28;;;0.67;70.37
59435;BME280;45241;49.768;8.636;2023-02-10T00:19:55;102144.16;;;0.66;70.50
59435;BME280;45241;49.768;8.636;2023-02-10T00:22:20;102143.88;;;0.70;70.03
59435;BME280;45241;49.768;8.636;2023-02-10T00:24:45;102146.00;;;0.64;70.31
59435;BME280;45241;49.768;8.636;2023-02-10T00:27:11;102150.94;;;0.87;69.88
59435;BME280;45241;49.768;8.636;2023-02-10T00:29:36;102153.53;;;0.71;68.98
59435;BME280;45241;49.768;8.636;2023-02-10T00:32:01;102158.31;;;0.47;71.14
59435;BME280;45241;49.768;8.636;2023-02-10T00:34:26;102151.47;;;0.61;69.76
59435;BME280;45241;49.768;8.636;2023-02-10T00:36:53;102157.38;;;0.82;69.37
59435;BME280;45241;49.768;8.636;2023-02-10T00:39:18;102161.47;;;0.71;69.92
59435;BME280;45241;49.768;8.636;2023-02-10T00:41:43;102166.88;;;0.68;69.95
59435;BME280;45241;49.768;8.636;2023-02-10T00:44:09;102162.97;;;0.60;70.81
59435;BME280;45241;49.768;8.636;2023-02-10T00:46:35;102168.16;;;0.61;70.34
59435;BME280;45241;49.768;8.636;2023-02-10T00:49:00;102171.25;;;0.52;70.02
59435;BME280;45241;49.768;8.636;2023-02-10T00:51:25;102175.59;;;0.53;70.17
59435;BME280;45241;49.768;8.636;2023-02-10T00:53:50;102179.72;;;0.59;70.78
59435;BME280;45241;49.768;8.636;2023-02-10T00:56:18;102178.06;;;-1.06;74.43
59435;BME280;45241;49.768;8.636;2023-02-10T00:58:45;102184.63;;;0.14;73.99
59435;BME280;45241;49.768;8.636;2023-02-10T01:01:10;102182.56;;;-0.32;76.18
59435;BME280;45241;49.768;8.636;2023-02-10T01:03:36;102188.41;;;0.26;74.02
59435;BME280;45241;49.768;8.636;2023-02-10T01:06:02;102185.47;;;-0.02;75.16
59435;BME280;45241;49.768;8.636;2023-02-10T01:08:28;102191.78;;;-0.99;75.22
59435;BME280;45241;49.768;8.636;2023-02-10T01:11:00;102193.28;;;0.16;73.57
59435;BME280;45241;49.768;8.636;2023-02-10T01:13:26;102186.78;;;-0.66;78.09
59435;BME280;45241;49.768;8.636;2023-02-10T01:15:52;102191.16;;;-0.29;75.14
59435;BME280;45241;49.768;8.636;2023-02-10T01:18:17;102191.66;;;0.31;73.80
59435;BME280;45241;49.768;8.636;2023-02-10T01:20:42;102188.72;;;0.37;72.89
59435;BME280;45241;49.768;8.636;2023-02-10T01:23:08;102187.97;;;0.35;73.04
59435;BME280;45241;49.768;8.636;2023-02-10T01:25:35;102187.16;;;-0.19;74.16
59435;BME280;45241;49.768;8.636;2023-02-10T01:28:01;102190.59;;;0.18;72.81
59435;BME280;45241;49.768;8.636;2023-02-10T01:30:26;102188.13;;;0.32;72.39
59435;BME280;45241;49.768;8.636;2023-02-10T01:32:53;102186.88;;;0.22;72.51
59435;BME280;45241;49.768;8.636;2023-02-10T01:35:18;102197.97;;;0.29;72.72
59435;BME280;45241;49.768;8.636;2023-02-10T01:37:44;102189.34;;;0.25;71.75
59435;BME280;45241;49.768;8.636;2023-02-10T01:40:09;102197.59;;;0.36;71.69
59435;BME280;45241;49.768;8.636;2023-02-10T01:42:35;102197.91;;;0.47;70.88
59435;BME280;45241;49.768;8.636;2023-02-10T01:47:37;102194.16;;;0.17;71.56
59435;BME280;45241;49.768;8.636;2023-02-10T01:50:03;102196.09;;;0.31;71.19
59435;BME280;45241;49.768;8.636;2023-02-10T01:52:28;102201.25;;;0.34;71.02
59435;BME280;45241;49.768;8.636;2023-02-10T01:54:59;102205.41;;;0.55;70.88
59435;BME280;45241;49.768;8.636;2023-02-10T01:57:27;102202.31;;;0.47;70.36
59435;BME280;45241;49.768;8.636;2023-02-10T01:59:52;102205.88;;;0.63;70.28
59435;BME280;45241;49.768;8.636;2023-02-10T02:02:18;102208.53;;;0.46;70.78
59435;BME280;45241;49.768;8.636;2023-02-10T02:04:50;102202.84;;;0.36;70.96
59435;BME280;45241;49.768;8.636;2023-02-10T02:07:19;102204.19;;;0.45;70.08
59435;BME280;45241;49.768;8.636;2023-02-10T02:09:46;102202.69;;;0.57;69.54
59435;BME280;45241;49.768;8.636;2023-02-10T02:12:28;102202.78;;;0.38;70.15
59435;BME280;45241;49.768;8.636;2023-02-10T02:15:12;102210.47;;;0.25;70.24
59435;BME280;45241;49.768;8.636;2023-02-10T02:17:46;102211.91;;;0.31;70.42
59435;BME280;45241;49.768;8.636;2023-02-10T02:26:11;102227.81;;;0.29;70.96
59435;BME280;45241;49.768;8.636;2023-02-10T02:32:18;102237.66;;;-0.28;71.80
59435;BME280;45241;49.768;8.636;2023-02-10T02:35:07;102231.00;;;0.18;71.16
59435;BME280;45241;49.768;8.636;2023-02-10T02:37:42;102231.72;;;0.39;70.94
59435;BME280;45241;49.768;8.636;2023-02-10T02:40:10;102242.47;;;-0.94;77.50
59435;BME280;45241;49.768;8.636;2023-02-10T02:42:36;102234.97;;;-0.09;73.79
59435;BME280;45241;49.768;8.636;2023-02-10T02:45:05;102231.88;;;0.19;73.23
59435;BME280;45241;49.768;8.636;2023-02-10T02:53:09;102245.06;;;0.19;72.27
59435;BME280;45241;49.768;8.636;2023-02-10T02:55:39;102243.19;;;0.21;71.88
59435;BME280;45241;49.768;8.636;2023-02-10T03:01:05;102239.03;;;0.34;70.94
59435;BME280;45241;49.768;8.636;2023-02-10T03:03:33;102246.69;;;0.39;70.52
59435;BME280;45241;49.768;8.636;2023-02-10T03:06:00;102252.22;;;0.34;70.65
59435;BME280;45241;49.768;8.636;2023-02-10T03:08:27;102243.97;;;0.23;70.52
59435;BME280;45241;49.768;8.636;2023-02-10T03:10:53;102248.16;;;0.27;71.13
59435;BME280;45241;49.768;8.636;2023-02-10T03:13:18;102240.59;;;0.02;72.31
59435;BME280;45241;49.768;8.636;2023-02-10T03:15:43;102247.22;;;0.11;72.43
59435;BME280;45241;49.768;8.636;2023-02-10T03:18:09;102239.47;;;0.08;73.67
59435;BME280;45241;49.768;8.636;2023-02-10T03:20:34;102237.09;;;0.02;74.14
59435;BME280;45241;49.768;8.636;2023-02-10T03:22:59;102232.94;;;0.15;73.22
59435;BME280;45241;49.768;8.636;2023-02-10T03:25:25;102235.66;;;0.13;73.71
59435;BME280;45241;49.768;8.636;2023-02-10T03:27:50;102231.00;;;0.18;72.67
59435;BME280;45241;49.768;8.636;2023-02-10T03:30:15;102228.09;;;0.06;72.57
59435;BME280;45241;49.768;8.636;2023-02-10T03:32:41;102226.41;;;0.05;73.19
59435;BME280;45241;49.768;8.636;2023-02-10T03:35:06;102225.50;;;0.23;72.49
59435;BME280;45241;49.768;8.636;2023-02-10T03:37:31;102234.03;;;0.28;72.77
59435;BME280;45241;49.768;8.636;2023-02-10T03:39:57;102221.78;;;0.27;73.45
59435;BME280;45241;49.768;8.636;2023-02-10T03:42:22;102229.84;;;0.41;73.02
59435;BME280;45241;49.768;8.636;2023-02-10T03:44:47;102234.69;;;0.33;72.07
59435;BME280;45241;49.768;8.636;2023-02-10T03:47:12;102236.00;;;-0.12;72.94
59435;BME280;45241;49.768;8.636;2023-02-10T03:49:38;102229.09;;;0.22;73.38
59435;BME280;45241;49.768;8.636;2023-02-10T03:52:03;102243.22;;;0.38;72.86
59435;BME280;45241;49.768;8.636;2023-02-10T03:54:28;102237.00;;;0.39;71.66
59435;BME280;45241;49.768;8.636;2023-02-10T03:56:54;102238.53;;;0.26;71.21
59435;BME280;45241;49.768;8.636;2023-02-10T03:59:19;102239.16;;;0.14;71.60
59435;BME280;45241;49.768;8.636;2023-02-10T04:01:44;102246.22;;;0.13;70.80
59435;BME280;45241;49.768;8.636;2023-02-10T04:04:10;102243.03;;;0.07;71.98
59435;BME280;45241;49.768;8.636;2023-02-10T04:06:35;102250.53;;;-0.03;71.66
59435;BME280;45241;49.768;8.636;2023-02-10T04:09:00;102249.06;;;0.09;71.53
59435;BME280;45241;49.768;8.636;2023-02-10T04:11:26;102247.06;;;0.14;71.91
59435;BME280;45241;49.768;8.636;2023-02-10T04:13:51;102251.25;;;0.18;71.96
59435;BME280;45241;49.768;8.636;2023-02-10T04:16:17;102253.03;;;0.17;71.80
59435;BME280;45241;49.768;8.636;2023-02-10T04:18:44;102253.59;;;0.24;71.30
59435;BME280;45241;49.768;8.636;2023-02-10T04:21:12;102257.78;;;0.28;71.82
59435;BME280;45241;49.768;8.636;2023-02-10T04:23:38;102258.72;;;0.27;71.28
59435;BME280;45241;49.768;8.636;2023-02-10T04:26:04;102258.25;;;0.36;71.70
59435;BME280;45241;49.768;8.636;2023-02-10T04:28:29;102266.53;;;0.29;71.74
59435;BME280;45241;49.768;8.636;2023-02-10T04:30:57;102271.78;;;0.47;72.35
59435;BME280;45241;49.768;8.636;2023-02-10T04:33:23;102270.06;;;0.46;71.46
59435;BME280;45241;49.768;8.636;2023-02-10T04:35:50;102274.25;;;0.33;72.39
59435;BME280;45241;49.768;8.636;2023-02-10T04:38:16;102266.09;;;0.38;72.60
59435;BME280;45241;49.768;8.636;2023-02-10T04:40:42;102271.38;;;0.20;73.42
59435;BME280;45241;49.768;8.636;2023-02-10T04:43:08;102279.44;;;-0.01;76.48
59435;BME280;45241;49.768;8.636;2023-02-10T04:45:33;102280.25;;;0.18;75.09
59435;BME280;45241;49.768;8.636;2023-02-10T04:47:59;102282.03;;;0.17;74.80
59435;BME280;45241;49.768;8.636;2023-02-10T04:50:25;102278.44;;;0.37;73.60
59435;BME280;45241;49.768;8.636;2023-02-10T04:52:50;102285.19;;;0.43;74.30
59435;BME280;45241;49.768;8.636;2023-02-10T04:55:15;102284.00;;;0.31;74.35
59435;BME280;45241;49.768;8.636;2023-02-10T04:57:41;102290.53;;;0.41;73.84
59435;BME280;45241;49.768;8.636;2023-02-10T05:00:06;102290.94;;;0.51;74.45
59435;BME280;45241;49.768;8.636;2023-02-10T05:02:32;102300.81;;;0.65;73.23
59435;BME280;45241;49.768;8.636;2023-02-10T05:04:57;102292.13;;;0.63;73.03
59435;BME280;45241;49.768;8.636;2023-02-10T05:07:23;102299.09;;;0.81;73.11
59435;BME280;45241;49.768;8.636;2023-02-10T05:09:48;102302.84;;;0.77;72.88
59435;BME280;45241;49.768;8.636;2023-02-10T05:12:13;102304.69;;;0.92;72.75
59435;BME280;45241;49.768;8.636;2023-02-10T05:14:39;102310.97;;;0.90;73.47
59435;BME280;45241;49.768;8.636;2023-02-10T05:17:04;102315.25;;;0.75;74.30
59435;BME280;45241;49.768;8.636;2023-02-10T05:19:29;102309.22;;;0.73;74.29
59435;BME280;45241;49.768;8.636;2023-02-10T05:21:55;102313.56;;;0.74;74.68
59435;BME280;45241;49.768;8.636;2023-02-10T05:24:20;102303.34;;;0.84;75.30
59435;BME280;45241;49.768;8.636;2023-02-10T05:26:45;102307.41;;;0.91;75.55
59435;BME280;45241;49.768;8.636;2023-02-10T05:29:11;102312.16;;;0.84;75.63
59435;BME280;45241;49.768;8.636;2023-02-10T05:31:36;102306.53;;;0.56;78.42
59435;BME280;45241;49.768;8.636;2023-02-10T05:34:01;102296.16;;;0.53;77.86
59435;BME280;45241;49.768;8.636;2023-02-10T05:36:26;102306.09;;;0.99;76.32
59435;BME280;45241;49.768;8.636;2023-02-10T05:38:52;102302.28;;;0.88;77.07
59435;BME280;45241;49.768;8.636;2023-02-10T05:41:36;102307.31;;;0.40;78.01
59435;BME280;45241;49.768;8.636;2023-02-10T05:44:01;102309.25;;;0.37;78.85
59435;BME280;45241;49.768;8.636;2023-02-10T05:46:27;102312.84;;;1.05;77.47
59435;BME280;45241;49.768;8.636;2023-02-10T05:48:52;102318.66;;;1.12;76.79
59435;BME280;45241;49.768;8.636;2023-02-10T05:51:17;102316.91;;;1.28;76.46
59435;BME280;45241;49.768;8.636;2023-02-10T05:53:42;102324.56;;;1.17;76.82
59435;BME280;45241;49.768;8.636;2023-02-10T05:56:08;102328.34;;;1.28;77.32
59435;BME280;45241;49.768;8.636;2023-02-10T05:58:33;102330.06;;;1.29;77.68
59435;BME280;45241;49.768;8.636;2023-02-10T06:00:59;102334.44;;;1.46;76.85
59435;BME280;45241;49.768;8.636;2023-02-10T06:03:27;102333.91;;;0.89;79.27
59435;BME280;45241;49.768;8.636;2023-02-10T06:05:52;102333.72;;;1.09;80.29
59435;BME280;45241;49.768;8.636;2023-02-10T06:08:18;102328.84;;;1.35;78.03
59435;BME280;45241;49.768;8.636;2023-02-10T06:10:43;102332.47;;;1.17;79.79
59435;BME280;45241;49.768;8.636;2023-02-10T06:13:09;102329.22;;;1.45;77.16
59435;BME280;45241;49.768;8.636;2023-02-10T06:15:34;102334.00;;;1.38;77.22
59435;BME280;45241;49.768;8.636;2023-02-10T06:17:59;102344.53;;;1.55;77.53
59435;BME280;45241;49.768;8.636;2023-02-10T06:20:25;102338.66;;;1.50;77.05
59435;BME280;45241;49.768;8.636;2023-02-10T06:22:50;102336.44;;;1.58;77.38
59435;BME280;45241;49.768;8.636;2023-02-10T06:25:16;102334.72;;;1.57;77.33
59435;BME280;45241;49.768;8.636;2023-02-10T06:27:41;102333.16;;;1.37;78.72
59435;BME280;45241;49.768;8.636;2023-02-10T06:30:07;102327.56;;;1.59;77.60
59435;BME280;45241;49.768;8.636;2023-02-10T06:32:32;102328.81;;;1.19;80.25
59435;BME280;45241;49.768;8.636;2023-02-10T06:34:58;102338.19;;;1.42;78.28
59435;BME280;45241;49.768;8.636;2023-02-10T06:37:23;102334.69;;;1.42;77.64
59435;BME280;45241;49.768;8.636;2023-02-10T06:39:49;102343.38;;;1.77;77.64
59435;BME280;45241;49.768;8.636;2023-02-10T06:42:14;102339.81;;;1.45;79.65
59435;BME280;45241;49.768;8.636;2023-02-10T06:44:40;102337.72;;;1.51;78.46
59435;BME280;45241;49.768;8.636;2023-02-10T06:47:05;102340.13;;;1.87;78.33
59435;BME280;45241;49.768;8.636;2023-02-10T06:49:30;102335.13;;;1.17;82.01
59435;BME280;45241;49.768;8.636;2023-02-10T06:51:56;102343.47;;;1.42;79.99
59435;BME280;45241;49.768;8.636;2023-02-10T06:54:21;102345.22;;;1.59;78.97
59435;BME280;45241;49.768;8.636;2023-02-10T06:56:47;102345.00;;;1.79;78.03
59435;BME280;45241;49.768;8.636;2023-02-10T06:59:13;102350.78;;;1.86;77.57
59435;BME280;45241;49.768;8.636;2023-02-10T07:01:39;102350.97;;;1.83;78.12
59435;BME280;45241;49.768;8.636;2023-02-10T07:04:04;102345.50;;;1.86;78.98
59435;BME280;45241;49.768;8.636;2023-02-10T07:06:29;102347.75;;;1.93;78.16
59435;BME280;45241;49.768;8.636;2023-02-10T07:08:54;102343.97;;;1.82;79.25
59435;BME280;45241;49.768;8.636;2023-02-10T07:11:20;102351.31;;;1.77;78.89
59435;BME280;45241;49.768;8.636;2023-02-10T07:13:45;102351.59;;;2.04;78.36
59435;BME280;45241;49.768;8.636;2023-02-10T07:16:10;102350.13;;;1.98;78.41
59435;BME280;45241;49.768;8.636;2023-02-10T07:18:39;102353.03;;;2.09;77.31
59435;BME280;45241;49.768;8.636;2023-02-10T07:21:05;102349.44;;;2.10;77.92
59435;BME280;45241;49.768;8.636;2023-02-10T07:23:30;102354.56;;;2.13;77.87
59435;BME280;45241;49.768;8.636;2023-02-10T07:25:55;102358.13;;;1.81;79.60
59435;BME280;45241;49.768;8.636;2023-02-10T07:28:21;102349.03;;;2.02;77.55
59435;BME280;45241;49.768;8.636;2023-02-10T07:30:46;102346.44;;;2.01;77.97
59435;BME280;45241;49.768;8.636;2023-02-10T07:33:11;102356.81;;;2.05;77.89
59435;BME280;45241;49.768;8.636;2023-02-10T07:35:36;102349.91;;;2.03;77.91
59435;BME280;45241;49.768;8.636;2023-02-10T07:38:02;102345.41;;;1.72;77.40
59435;BME280;45241;49.768;8.636;2023-02-10T07:40:27;102353.63;;;1.83;77.41
59435;BME280;45241;49.768;8.636;2023-02-10T07:42:55;102353.56;;;1.51;79.71
59435;BME280;45241;49.768;8.636;2023-02-10T07:45:20;102355.03;;;1.73;78.33
59435;BME280;45241;49.768;8.636;2023-02-10T07:47:45;102363.63;;;1.60;78.86
59435;BME280;45241;49.768;8.636;2023-02-10T07:50:11;102358.72;;;1.70;78.74
59435;BME280;45241;49.768;8.636;2023-02-10T07:52:36;102351.13;;;1.64;77.83
59435;BME280;45241;49.768;8.636;2023-02-10T07:55:02;102349.88;;;1.21;78.76
59435;BME280;45241;49.768;8.636;2023-02-10T07:57:29;102363.06;;;1.38;78.34
59435;BME280;45241;49.768;8.636;2023-02-10T07:59:54;102356.63;;;1.26;78.78
59435;BME280;45241;49.768;8.636;2023-02-10T08:02:20;102355.78;;;1.59;78.49
59435;BME280;45241;49.768;8.636;2023-02-10T08:04:45;102368.53;;;1.84;77.55
59435;BME280;45241;49.768;8.636;2023-02-10T08:07:10;102369.75;;;2.25;76.00
59435;BME280;45241;49.768;8.636;2023-02-10T08:09:37;102367.72;;;2.46;76.09
59435;BME280;45241;49.768;8.636;2023-02-10T08:12:02;102359.50;;;2.67;75.74
59435;BME280;45241;49.768;8.636;2023-02-10T08:14:28;102376.75;;;2.58;76.08
59435;BME280;45241;49.768;8.636;2023-02-10T08:16:53;102379.66;;;2.69;75.35
59435;BME280;45241;49.768;8.636;2023-02-10T08:19:18;102390.16;;;2.23;74.96
59435;BME280;45241;49.768;8.636;2023-02-10T08:21:44;102389.31;;;1.91;76.35
59435;BME280;45241;49.768;8.636;2023-02-10T08:24:09;102397.44;;;2.36;75.56
59435;BME280;45241;49.768;8.636;2023-02-10T08:26:34;102396.03;;;1.97;77.43
59435;BME280;45241;49.768;8.636;2023-02-10T08:29:00;102402.63;;;1.90;76.59
59435;BME280;45241;49.768;8.636;2023-02-10T08:31:25;102400.63;;;1.78;77.27
59435;BME280;45241;49.768;8.636;2023-02-10T08:33:50;102410.50;;;1.74;77.54
59435;BME280;45241;49.768;8.636;2023-02-10T08:36:17;102408.84;;;1.89;77.46
59435;BME280;45241;49.768;8.636;2023-02-10T08:38:43;102409.91;;;2.18;76.61
59435;BME280;45241;49.768;8.636;2023-02-10T08:41:09;102403.75;;;2.02;76.21
59435;BME280;45241;49.768;8.636;2023-02-10T08:43:34;102400.06;;;1.88;76.60
59435;BME280;45241;49.768;8.636;2023-02-10T08:46:00;102415.56;;;1.61;77.38
59435;BME280;45241;49.768;8.636;2023-02-10T08:48:26;102409.50;;;1.59;77.47
59435;BME280;45241;49.768;8.636;2023-02-10T08:50:52;102411.22;;;1.60;77.25
59435;BME280;45241;49.768;8.636;2023-02-10T08:53:18;102408.50;;;1.62;77.32
59435;BME280;45241;49.768;8.636;2023-02-10T08:55:44;102411.38;;;1.57;77.69
59435;BME280;45241;49.768;8.636;2023-02-10T08:58:09;102419.31;;;1.57;77.83
59435;BME280;45241;49.768;8.636;2023-02-10T09:00:34;102423.44;;;1.63;78.32
59435;BME280;45241;49.768;8.636;2023-02-10T09:03:00;102429.50;;;1.65;77.83
59435;BME280;45241;49.768;8.636;2023-02-10T09:05:26;102436.38;;;1.85;77.83
59435;BME280;45241;49.768;8.636;2023-02-10T09:07:51;102444.25;;;1.69;78.17
59435;BME280;45241;49.768;8.636;2023-02-10T09:10:16;102443.78;;;1.78;79.11
59435;BME280;45241;49.768;8.636;2023-02-10T09:12:42;102438.13;;;1.68;78.21
59435;BME280;45241;49.768;8.636;2023-02-10T09:15:09;102447.19;;;1.80;78.78
59435;BME280;45241;49.768;8.636;2023-02-10T09:17:34;102451.28;;;2.19;77.56
59435;BME280;45241;49.768;8.636;2023-02-10T09:19:59;102453.25;;;2.15;77.17
59435;BME280;45241;49.768;8.636;2023-02-10T09:22:25;102447.25;;;2.12;78.08
59435;BME280;45241;49.768;8.636;2023-02-10T09:24:50;102441.66;;;2.34;77.11
59435;BME280;45241;49.768;8.636;2023-02-10T09:27:18;102440.97;;;2.14;77.31
59435;BME280;45241;49.768;8.636;2023-02-10T09:29:44;102437.97;;;2.20;77.13
59435;BME280;45241;49.768;8.636;2023-02-10T09:32:10;102445.97;;;2.03;77.40
59435;BME280;45241;49.768;8.636;2023-02-10T09:34:35;102441.47;;;2.21;77.38
59435;BME280;45241;49.768;8.636;2023-02-10T09:37:01;102436.19;;;2.52;76.90
59435;BME280;45241;49.768;8.636;2023-02-10T09:39:28;102435.13;;;2.86;75.84
59435;BME280;45241;49.768;8.636;2023-02-10T09:42:17;102430.56;;;3.04;75.39
59435;BME280;45241;49.768;8.636;2023-02-10T09:44:55;102431.22;;;2.78;75.28
59435;BME280;45241;49.768;8.636;2023-02-10T09:47:42;102437.03;;;2.53;76.31
59435;BME280;45241;49.768;8.636;2023-02-10T09:50:36;102440.47;;;2.55;76.05
59435;BME280;45241;49.768;8.636;2023-02-10T09:55:40;102438.41;;;2.60;74.58
59435;BME280;45241;49.768;8.636;2023-02-10T09:58:18;102423.47;;;3.05;73.95
59435;BME280;45241;49.768;8.636;2023-02-10T10:00:45;102432.53;;;3.01;72.60
59435;BME280;45241;49.768;8.636;2023-02-10T10:03:17;102432.00;;;2.64;72.37
59435;BME280;45241;49.768;8.636;2023-02-10T10:10:52;102434.78;;;3.67;71.02
59435;BME280;45241;49.768;8.636;2023-02-10T10:13:23;102436.13;;;3.60;70.62
59435;BME280;45241;49.768;8.636;2023-02-10T10:16:12;102434.47;;;3.43;70.70
59435;BME280;45241;49.768;8.636;2023-02-10T10:21:28;102438.78;;;4.17;69.73
59435;BME280;45241;49.768;8.636;2023-02-10T10:27:02;102440.00;;;3.83;68.92
59435;BME280;45241;49.768;8.636;2023-02-10T10:32:18;102439.44;;;3.78;68.51
59435;BME280;45241;49.768;8.636;2023-02-10T10:34:53;102445.50;;;4.37;68.23
59435;BME280;45241;49.768;8.636;2023-02-10T10:37:24;102430.00;;;4.43;66.84
59435;BME280;45241;49.768;8.636;2023-02-10T10:39:53;102442.59;;;3.98;68.04
59435;BME280;45241;49.768;8.636;2023-02-10T10:42:34;102437.84;;;3.89;67.74
59435;BME280;45241;49.768;8.636;2023-02-10T10:45:09;102437.09;;;4.57;66.36
59435;BME280;45241;49.768;8.636;2023-02-10T10:47:40;102440.53;;;4.45;65.87
59435;BME280;45241;49.768;8.636;2023-02-10T10:50:14;102439.00;;;3.85;67.55
59435;BME280;45241;49.768;8.636;2023-02-10T10:52:41;102434.03;;;3.93;67.37
59435;BME280;45241;49.768;8.636;2023-02-10T10:55:16;102439.94;;;4.13;67.42
59435;BME280;45241;49.768;8.636;2023-02-10T10:57:43;102432.72;;;4.15;67.53
59435;BME280;45241;49.768;8.636;2023-02-10T11:00:26;102438.03;;;4.15;67.15
59435;BME280;45241;49.768;8.636;2023-02-10T11:02:57;102429.34;;;4.81;67.32
59435;BME280;45241;49.768;8.636;2023-02-10T11:05:27;102425.81;;;4.53;65.83
59435;BME280;45241;49.768;8.636;2023-02-10T11:07:54;102429.41;;;4.25;66.59
59435;BME280;45241;49.768;8.636;2023-02-10T11:10:27;102415.41;;;4.50;65.44
59435;BME280;45241;49.768;8.636;2023-02-10T11:12:56;102412.06;;;4.74;65.16
59435;BME280;45241;49.768;8.636;2023-02-10T11:17:51;102408.25;;;5.05;63.52
59435;BME280;45241;49.768;8.636;2023-02-10T11:20:29;102404.94;;;5.53;62.88
59435;BME280;45241;49.768;8.636;2023-02-10T11:23:15;102404.28;;;5.50;61.49
59435;BME280;45241;49.768;8.636;2023-02-10T11:25:45;102405.75;;;5.16;62.61
59435;BME280;45241;49.768;8.636;2023-02-10T11:28:21;102409.19;;;5.56;62.72
59435;BME280;45241;49.768;8.636;2023-02-10T11:30:55;102408.31;;;5.94;61.46
59435;BME280;45241;49.768;8.636;2023-02-10T11:33:25;102400.34;;;5.68;60.72
59435;BME280;45241;49.768;8.636;2023-02-10T11:36:03;102389.41;;;6.22;60.78
59435;BME280;45241;49.768;8.636;2023-02-10T11:38:29;102399.06;;;5.87;60.48
59435;BME280;45241;49.768;8.636;2023-02-10T11:41:00;102387.47;;;5.75;59.70
59435;BME280;45241;49.768;8.636;2023-02-10T11:43:37;102389.69;;;6.30;59.31
59435;BME280;45241;49.768;8.636;2023-02-10T11:46:06;102390.41;;;6.08;58.75
59435;BME280;45241;49.768;8.636;2023-02-10T11:48:35;102393.88;;;7.06;58.97
59435;BME280;45241;49.768;8.636;2023-02-10T11:51:16;102385.25;;;6.31;58.04
59435;BME280;45241;49.768;8.636;2023-02-10T11:53:44;102375.66;;;7.35;56.88
59435;BME280;45241;49.768;8.636;2023-02-10T12:01:54;102377.53;;;7.11;55.73
59435;BME280;45241;49.768;8.636;2023-02-10T12:04:35;102381.78;;;7.13;54.04
59435;BME280;45241;49.768;8.636;2023-02-10T12:09:59;102384.00;;;7.30;54.64
59435;BME280;45241;49.768;8.636;2023-02-10T12:17:26;102374.88;;;6.63;56.90
59435;BME280;45241;49.768;8.636;2023-02-10T12:22:51;102376.41;;;6.18;56.96
59435;BME280;45241;49.768;8.636;2023-02-10T12:25:44;102376.44;;;6.41;57.40
59435;BME280;45241;49.768;8.636;2023-02-10T12:34:15;102375.31;;;5.96;58.55
59435;BME280;45241;49.768;8.636;2023-02-10T12:39:23;102372.50;;;6.10;58.47
59435;BME280;45241;49.768;8.636;2023-02-10T12:42:14;102369.06;;;6.21;58.58
59435;BME280;45241;49.768;8.636;2023-02-10T12:45:18;102375.81;;;6.38;58.09
59435;BME280;45241;49.768;8.636;2023-02-10T12:48:00;102359.06;;;6.72;57.01
59435;BME280;45241;49.768;8.636;2023-02-10T12:50:45;102365.91;;;6.40;58.20
59435;BME280;45241;49.768;8.636;2023-02-10T12:53:17;102365.84;;;6.29;59.22
59435;BME280;45241;49.768;8.636;2023-02-10T12:55:59;102366.03;;;6.38;59.02
59435;BME280;45241;49.768;8.636;2023-02-10T12:58:30;102349.97;;;6.51;57.75
59435;BME280;45241;49.768;8.636;2023-02-10T13:03:31;102351.25;;;6.58;57.11
59435;BME280;45241;49.768;8.636;2023-02-10T13:14:25;102362.31;;;6.28;54.89
59435;BME280;45241;49.768;8.636;2023-02-10T13:16:53;102352.22;;;6.68;55.21
59435;BME280;45241;49.768;8.636;2023-02-10T13:27:52;102355.06;;;6.54;55.34
59435;BME280;45241;49.768;8.636;2023-02-10T13:35:55;102337.06;;;6.34;56.16
59435;BME280;45241;49.768;8.636;2023-02-10T13:38:21;102324.13;;;6.40;56.35
59435;BME280;45241;49.768;8.636;2023-02-10T13:40:53;102334.00;;;6.51;56.63
59435;BME280;45241;49.768;8.636;2023-02-10T13:43:40;102336.28;;;6.45;56.96
59435;BME280;45241;49.768;8.636;2023-02-10T13:46:05;102325.78;;;6.54;56.57
59435;BME280;45241;49.768;8.636;2023-02-10T13:48:41;102326.56;;;6.43;57.09
59435;BME280;45241;49.768;8.636;2023-02-10T13:51:08;102319.34;;;6.57;56.46
59435;BME280;45241;49.768;8.636;2023-02-10T13:58:55;102317.50;;;7.05;56.37
59435;BME280;45241;49.768;8.636;2023-02-10T14:01:37;102321.66;;;6.85;56.45
59435;BME280;45241;49.768;8.636;2023-02-10T14:04:06;102326.78;;;6.99;56.37
59435;BME280;45241;49.768;8.636;2023-02-10T14:06:34;102316.94;;;7.24;55.86
59435;BME280;45241;49.768;8.636;2023-02-10T14:09:04;102313.69;;;7.76;55.66
59435;BME280;45241;49.768;8.636;2023-02-10T14:11:41;102306.91;;;7.61;55.37
59435;BME280;45241;49.768;8.636;2023-02-10T14:16:44;102310.63;;;7.47;55.70
59435;BME280;45241;49.768;8.636;2023-02-10T14:19:22;102313.69;;;7.65;55.37
59435;BME280;45241;49.768;8.636;2023-02-10T14:21:49;102306.53;;;7.77;55.02
59435;BME280;45241;49.768;8.636;2023-02-10T14:24:21;102303.19;;;8.50;53.97
59435;BME280;45241;49.768;8.636;2023-02-10T14:26:49;102313.13;;;8.59;53.15
59435;BME280;45241;49.768;8.636;2023-02-10T14:29:18;102299.47;;;8.41;53.28
59435;BME280;45241;49.768;8.636;2023-02-10T14:31:48;102303.56;;;8.13;54.08
59435;BME280;45241;49.768;8.636;2023-02-10T14:34:21;102298.94;;;8.15;54.53
59435;BME280;45241;49.768;8.636;2023-02-10T14:36:55;102295.78;;;7.99;54.48
59435;BME280;45241;49.768;8.636;2023-02-10T14:39:23;102294.28;;;7.74;54.95
59435;BME280;45241;49.768;8.636;2023-02-10T14:41:49;102296.44;;;7.69;55.45